Time;durP1;ratioP1;P1;durP2;ratioP2;P2;SDS_P1;SDS_P2;PMS_P1;PMS_P2;Temp;Humidity;BMP_temperature;BMP_pressure;BME280_temperature;BME280_humidity;BME280_pressure;Samples;Min_cycle;Max_cycle;Signal;HPM_P1;HPM_P2
2023/04/26 00:01:41;;;;;;;4.03;2.15;;;;;;;;;;5013922;28;20476;-59
2023/04/26 00:04:07;;;;;;;6.22;2.25;;;;;;;;;;4996479;28;20044;-59
2023/04/26 00:06:33;;;;;;;8.02;2.50;;;;;;;;;;5013718;28;20481;-59
2023/04/26 00:08:59;;;;;;;4.28;2.10;;;;;;;;;;5013802;28;20034;-58
2023/04/26 00:11:24;;;;;;;5.88;2.05;;;;;;;;;;5013958;28;20021;-58
2023/04/26 00:13:50;;;;;;;3.83;2.15;;;;;;;;;;5013786;28;20037;-59
2023/04/26 00:16:17;;;;;;;6.15;1.92;;;;;;;;;;5016958;28;20022;-59
2023/04/26 00:18:43;;;;;;;5.07;2.15;;;;;;;;;;5017725;28;20038;-59
2023/04/26 00:21:08;;;;;;;4.40;2.50;;;;;;;;;;4997789;28;20110;-59
2023/04/26 00:23:35;;;;;;;5.10;2.53;;;;;;;;;;4997760;28;20117;-59
2023/04/26 00:26:01;;;;;;;4.10;2.05;;;;;;;;;;5010823;28;20054;-59
2023/04/26 00:28:27;;;;;;;4.20;2.20;;;;;;;;;;5016915;28;20037;-58
2023/04/26 00:30:56;;;;;;;6.75;2.33;;;;;;;;;;5017146;28;20491;-59
2023/04/26 00:33:22;;;;;;;3.45;2.00;;;;;;;;;;5017256;28;20022;-59
2023/04/26 00:35:47;;;;;;;7.97;2.33;;;;;;;;;;5017353;28;20519;-59
2023/04/26 00:38:13;;;;;;;5.25;2.22;;;;;;;;;;5017527;28;20108;-59
2023/04/26 00:40:38;;;;;;;5.68;2.35;;;;;;;;;;5017309;28;20424;-59
2023/04/26 00:43:04;;;;;;;4.22;2.30;;;;;;;;;;4999650;28;20092;-58
2023/04/26 00:45:30;;;;;;;4.60;1.95;;;;;;;;;;5017225;28;20102;-58
2023/04/26 00:47:56;;;;;;;5.72;2.50;;;;;;;;;;5016899;28;20037;-59
2023/04/26 00:50:21;;;;;;;4.70;2.30;;;;;;;;;;4999212;28;20030;-59
2023/04/26 00:52:46;;;;;;;7.22;2.20;;;;;;;;;;5017055;28;20116;-59
2023/04/26 00:55:13;;;;;;;6.13;2.25;;;;;;;;;;4999519;28;20014;-59
2023/04/26 00:57:38;;;;;;;3.78;1.77;;;;;;;;;;4999582;28;20373;-59
2023/04/26 01:00:04;;;;;;;5.53;2.08;;;;;;;;;;4999350;28;20102;-60
2023/04/26 01:02:29;;;;;;;5.35;2.30;;;;;;;;;;4999265;28;20034;-59
2023/04/26 01:04:55;;;;;;;3.80;2.50;;;;;;;;;;4999459;28;20158;-59
2023/04/26 01:07:20;;;;;;;5.80;2.08;;;;;;;;;;5022851;28;20017;-59
2023/04/26 01:09:47;;;;;;;3.08;2.22;;;;;;;;;;5026919;28;20475;-59
2023/04/26 01:12:13;;;;;;;5.05;1.92;;;;;;;;;;5022066;28;20121;-60
2023/04/26 01:14:38;;;;;;;4.88;2.20;;;;;;;;;;5033253;28;20058;-60
2023/04/26 01:17:04;;;;;;;6.00;2.15;;;;;;;;;;4999055;28;20022;-60
2023/04/26 01:19:31;;;;;;;3.90;1.98;;;;;;;;;;5016474;28;20096;-60
2023/04/26 01:21:57;;;;;;;4.15;2.28;;;;;;;;;;4998913;28;20464;-60
2023/04/26 01:24:22;;;;;;;4.63;2.10;;;;;;;;;;5016264;28;20381;-61
2023/04/26 01:26:48;;;;;;;4.38;2.10;;;;;;;;;;5018434;28;20068;-59
2023/04/26 01:29:17;;;;;;;6.72;2.40;;;;;;;;;;5035745;28;20052;-60
2023/04/26 01:31:43;;;;;;;4.77;2.60;;;;;;;;;;5018457;28;20034;-59
2023/04/26 01:34:08;;;;;;;3.55;2.33;;;;;;;;;;5035753;28;20037;-59
2023/04/26 01:36:34;;;;;;;3.20;2.10;;;;;;;;;;5035695;28;20021;-59
2023/04/26 01:38:59;;;;;;;4.13;2.20;;;;;;;;;;5035785;28;20483;-59
2023/04/26 01:41:24;;;;;;;7.75;2.05;;;;;;;;;;5018010;28;20068;-60
2023/04/26 01:43:51;;;;;;;4.50;2.30;;;;;;;;;;5036013;28;20018;-60
2023/04/26 01:46:16;;;;;;;6.75;2.30;;;;;;;;;;5035710;28;20132;-60
2023/04/26 01:48:42;;;;;;;5.55;2.38;;;;;;;;;;5017709;28;20543;-60
2023/04/26 01:51:07;;;;;;;3.50;2.30;;;;;;;;;;5018012;28;20014;-59
2023/04/26 01:53:33;;;;;;;7.20;2.50;;;;;;;;;;5035839;28;20025;-59
2023/04/26 01:56:01;;;;;;;4.43;2.28;;;;;;;;;;5018029;28;20468;-59
2023/04/26 01:58:27;;;;;;;4.70;2.50;;;;;;;;;;5001437;28;20029;-58
2023/04/26 02:00:53;;;;;;;4.78;2.22;;;;;;;;;;5017701;28;20494;-59
2023/04/26 02:03:18;;;;;;;10.02;2.60;;;;;;;;;;5033111;28;20032;-59
2023/04/26 02:05:43;;;;;;;4.65;2.55;;;;;;;;;;5015674;28;20117;-59
2023/04/26 02:08:08;;;;;;;3.13;2.33;;;;;;;;;;5015234;28;20129;-60
2023/04/26 02:10:34;;;;;;;7.43;2.55;;;;;;;;;;5015300;28;20054;-59
2023/04/26 02:13:00;;;;;;;5.53;2.78;;;;;;;;;;4996249;28;20025;-59
2023/04/26 02:15:25;;;;;;;6.75;2.63;;;;;;;;;;5023817;28;20030;-59
2023/04/26 02:17:52;;;;;;;3.85;2.45;;;;;;;;;;5035163;28;20459;-59
2023/04/26 02:20:19;;;;;;;6.03;2.33;;;;;;;;;;4997880;28;20033;-60
2023/04/26 02:22:44;;;;;;;5.68;2.72;;;;;;;;;;5015249;28;20396;-60
2023/04/26 02:25:13;;;;;;;5.50;2.80;;;;;;;;;;4997467;28;20046;-60
2023/04/26 02:27:39;;;;;;;4.30;2.60;;;;;;;;;;5014113;28;20377;-60
2023/04/26 02:30:05;;;;;;;3.38;2.63;;;;;;;;;;5015245;28;20030;-59
2023/04/26 02:32:31;;;;;;;5.10;2.85;;;;;;;;;;5017103;28;20033;-58
2023/04/26 02:34:56;;;;;;;5.00;2.70;;;;;;;;;;5034939;28;20067;-59
2023/04/26 02:37:22;;;;;;;4.15;2.45;;;;;;;;;;5032695;28;20483;-58
2023/04/26 02:39:50;;;;;;;7.90;3.05;;;;;;;;;;5033790;28;20384;-58
2023/04/26 02:42:16;;;;;;;5.18;2.70;;;;;;;;;;5035026;28;20105;-58
2023/04/26 02:44:41;;;;;;;5.50;2.60;;;;;;;;;;5017075;28;20068;-58
2023/04/26 02:47:07;;;;;;;6.28;2.75;;;;;;;;;;5033278;28;20025;-58
2023/04/26 02:49:32;;;;;;;6.00;2.85;;;;;;;;;;5033204;28;20017;-58
2023/04/26 02:51:57;;;;;;;6.32;2.60;;;;;;;;;;5016799;28;20076;-60
2023/04/26 02:54:23;;;;;;;4.57;2.70;;;;;;;;;;5033000;28;20028;-59
2023/04/26 02:56:50;;;;;;;6.53;3.03;;;;;;;;;;5033169;28;20026;-59
2023/04/26 02:59:15;;;;;;;6.78;2.72;;;;;;;;;;5032921;28;20368;-59
2023/04/26 03:01:41;;;;;;;4.88;2.78;;;;;;;;;;5033072;28;20041;-59
2023/04/26 03:04:06;;;;;;;5.07;2.67;;;;;;;;;;5033342;28;20526;-57
2023/04/26 03:06:33;;;;;;;6.25;2.90;;;;;;;;;;5033169;28;20061;-57
2023/04/26 03:08:58;;;;;;;5.15;3.05;;;;;;;;;;5016460;28;20068;-58
2023/04/26 03:11:24;;;;;;;4.30;2.67;;;;;;;;;;5016642;28;20071;-58
2023/04/26 03:13:50;;;;;;;5.22;2.60;;;;;;;;;;5016382;28;20026;-58
2023/04/26 03:16:17;;;;;;;3.55;2.55;;;;;;;;;;5016609;28;20112;-58
2023/04/26 03:18:42;;;;;;;5.57;2.50;;;;;;;;;;5000303;28;20037;-58
2023/04/26 03:21:08;;;;;;;5.22;2.80;;;;;;;;;;5016640;28;20083;-58
2023/04/26 03:23:33;;;;;;;6.22;2.65;;;;;;;;;;5016274;28;20495;-58
2023/04/26 03:25:59;;;;;;;5.75;2.80;;;;;;;;;;5002753;28;20125;-59
2023/04/26 03:28:24;;;;;;;4.70;2.90;;;;;;;;;;5014117;28;20343;-59
2023/04/26 03:30:50;;;;;;;6.63;2.58;;;;;;;;;;4996793;28;20026;-58
2023/04/26 03:33:16;;;;;;;4.35;2.58;;;;;;;;;;4996834;28;20022;-59
2023/04/26 03:35:43;;;;;;;7.90;2.90;;;;;;;;;;5014748;28;20017;-58
2023/04/26 03:38:08;;;;;;;4.72;2.67;;;;;;;;;;5013820;28;20029;-59
2023/04/26 03:40:34;;;;;;;5.78;2.78;;;;;;;;;;5013943;28;20037;-58
2023/04/26 03:43:00;;;;;;;4.13;2.78;;;;;;;;;;4996740;28;20045;-58
2023/04/26 03:45:25;;;;;;;4.30;2.38;;;;;;;;;;4996464;28;20026;-58
2023/04/26 03:47:51;;;;;;;4.95;2.70;;;;;;;;;;4977117;28;20042;-58
2023/04/26 03:50:17;;;;;;;4.47;2.70;;;;;;;;;;4980381;28;20030;-58
2023/04/26 03:52:44;;;;;;;5.00;2.90;;;;;;;;;;5005852;28;20009;-59
2023/04/26 03:55:10;;;;;;;5.40;2.72;;;;;;;;;;5020041;28;20537;-59
2023/04/26 03:57:36;;;;;;;3.00;2.55;;;;;;;;;;5006038;28;20020;-59
2023/04/26 04:00:10;;;;;;;3.80;1.98;;;;;;;;;;5004476;28;20029;-60
2023/04/26 04:02:40;;;;;;;6.35;2.50;;;;;;;;;;5023862;28;20448;-59
2023/04/26 04:05:07;;;;;;;5.63;2.53;;;;;;;;;;4983985;28;20071;-58
2023/04/26 04:07:32;;;;;;;4.93;2.63;;;;;;;;;;4980401;28;20045;-59
2023/04/26 04:09:58;;;;;;;4.97;2.47;;;;;;;;;;4997888;28;20018;-59
2023/04/26 04:12:23;;;;;;;4.50;2.40;;;;;;;;;;4980534;28;20080;-59
2023/04/26 04:14:49;;;;;;;5.15;2.40;;;;;;;;;;4980501;28;20084;-60
2023/04/26 04:17:15;;;;;;;3.60;2.30;;;;;;;;;;4980332;28;20125;-58
2023/04/26 04:19:41;;;;;;;4.70;2.38;;;;;;;;;;5000060;28;20026;-60
2023/04/26 04:22:07;;;;;;;3.58;2.42;;;;;;;;;;4984090;28;20026;-59
2023/04/26 04:24:32;;;;;;;3.33;2.33;;;;;;;;;;5012030;28;20018;-60
2023/04/26 04:27:00;;;;;;;4.13;2.42;;;;;;;;;;5035319;28;20043;-62
2023/04/26 04:29:25;;;;;;;3.88;2.50;;;;;;;;;;5056637;28;20025;-58
2023/04/26 04:31:52;;;;;;;5.43;2.58;;;;;;;;;;5056872;28;20049;-57
2023/04/26 04:34:17;;;;;;;3.38;2.40;;;;;;;;;;5056890;28;20024;-55
2023/04/26 04:36:44;;;;;;;5.40;2.55;;;;;;;;;;5019328;28;20037;-56
2023/04/26 04:39:14;;;;;;;4.20;2.60;;;;;;;;;;5035849;28;20026;-56
2023/04/26 04:41:46;;;;;;;4.53;2.40;;;;;;;;;;5035254;28;20045;-55
2023/04/26 04:44:16;;;;;;;4.88;2.72;;;;;;;;;;5035795;28;20029;-55
2023/04/26 04:46:42;;;;;;;3.28;2.50;;;;;;;;;;5035575;28;20033;-56
2023/04/26 04:49:11;;;;;;;4.20;2.55;;;;;;;;;;5035298;28;20025;-55
2023/04/26 04:51:36;;;;;;;4.72;2.42;;;;;;;;;;5053217;28;20066;-55
2023/04/26 04:54:09;;;;;;;4.20;2.72;;;;;;;;;;5035515;28;20782;-56
2023/04/26 04:56:35;;;;;;;3.58;2.35;;;;;;;;;;5036764;28;20031;-55
2023/04/26 04:59:00;;;;;;;4.47;2.10;;;;;;;;;;5018955;28;20112;-55
2023/04/26 05:01:25;;;;;;;3.88;2.28;;;;;;;;;;5018101;28;20033;-55
2023/04/26 05:03:54;;;;;;;4.28;2.53;;;;;;;;;;5018910;28;20120;-55
2023/04/26 05:06:19;;;;;;;3.85;2.10;;;;;;;;;;5018006;28;20108;-55
2023/04/26 05:08:45;;;;;;;3.53;2.13;;;;;;;;;;5019190;28;20522;-55
2023/04/26 05:11:10;;;;;;;3.45;2.40;;;;;;;;;;5021261;28;20029;-59
2023/04/26 05:13:35;;;;;;;2.88;1.92;;;;;;;;;;5024229;28;20136;-69
2023/04/26 05:16:01;;;;;;;3.63;1.85;;;;;;;;;;5054472;28;20039;-61
2023/04/26 05:18:26;;;;;;;5.55;2.38;;;;;;;;;;5030455;28;20468;-59
2023/04/26 05:20:52;;;;;;;4.80;2.40;;;;;;;;;;5032295;28;20111;-60
2023/04/26 05:23:18;;;;;;;5.32;2.47;;;;;;;;;;5035774;28;20028;-60
2023/04/26 05:25:44;;;;;;;3.45;2.03;;;;;;;;;;5008818;28;20054;-60
2023/04/26 05:28:28;;;;;;;3.67;2.33;;;;;;;;;;5035241;28;20144;-60
2023/04/26 05:31:04;;;;;;;4.82;2.33;;;;;;;;;;5017379;28;20036;-59
2023/04/26 05:33:55;;;;;;;3.13;1.98;;;;;;;;;;5017228;28;20033;-60
2023/04/26 05:36:31;;;;;;;5.65;2.15;;;;;;;;;;5035069;28;20378;-60
2023/04/26 05:38:56;;;;;;;3.42;2.00;;;;;;;;;;5017613;28;20457;-60
2023/04/26 05:41:21;;;;;;;4.20;2.10;;;;;;;;;;5035210;28;20026;-60
2023/04/26 05:43:47;;;;;;;4.65;2.05;;;;;;;;;;5018149;28;20040;-60
2023/04/26 05:46:12;;;;;;;4.30;2.10;;;;;;;;;;5017780;28;20340;-60
2023/04/26 05:48:39;;;;;;;5.05;1.85;;;;;;;;;;5017775;28;20029;-60
2023/04/26 05:51:05;;;;;;;3.47;1.90;;;;;;;;;;5017716;28;20025;-60
2023/04/26 05:53:30;;;;;;;4.70;1.85;;;;;;;;;;5018056;28;20076;-60
2023/04/26 05:55:57;;;;;;;5.15;1.95;;;;;;;;;;5017675;28;20029;-60
2023/04/26 05:58:22;;;;;;;4.20;2.00;;;;;;;;;;4999747;28;20036;-60
2023/04/26 06:00:48;;;;;;;3.42;1.90;;;;;;;;;;5015359;28;20480;-60
2023/04/26 06:03:14;;;;;;;3.95;2.20;;;;;;;;;;4999668;28;20388;-60
2023/04/26 06:05:40;;;;;;;2.28;1.42;;;;;;;;;;5016028;28;20141;-60
2023/04/26 06:08:05;;;;;;;4.57;1.55;;;;;;;;;;4999051;28;20050;-60
2023/04/26 06:10:31;;;;;;;4.32;1.48;;;;;;;;;;5015912;28;20092;-59
2023/04/26 06:12:56;;;;;;;3.20;1.73;;;;;;;;;;5016275;28;20490;-60
2023/04/26 06:15:23;;;;;;;4.93;1.90;;;;;;;;;;5016126;28;20052;-60
2023/04/26 06:17:49;;;;;;;5.07;2.05;;;;;;;;;;5016373;28;20029;-60
2023/04/26 06:20:15;;;;;;;6.15;1.90;;;;;;;;;;5016073;28;20498;-60
2023/04/26 06:22:40;;;;;;;4.00;2.35;;;;;;;;;;5016797;28;20033;-58
2023/04/26 06:25:06;;;;;;;3.47;2.30;;;;;;;;;;5016863;28;20128;-58
2023/04/26 06:27:34;;;;;;;4.35;1.80;;;;;;;;;;5017667;28;20034;-58
2023/04/26 06:30:00;;;;;;;4.47;1.98;;;;;;;;;;5017192;28;20029;-57
2023/04/26 06:32:25;;;;;;;3.50;1.60;;;;;;;;;;5016843;28;20029;-57
2023/04/26 06:34:52;;;;;;;3.95;1.42;;;;;;;;;;5016843;28;20108;-58
2023/04/26 06:37:17;;;;;;;2.20;1.50;;;;;;;;;;5016765;28;20117;-58
2023/04/26 06:39:43;;;;;;;4.68;1.90;;;;;;;;;;5034426;28;20021;-57
2023/04/26 06:42:10;;;;;;;2.55;1.42;;;;;;;;;;5016701;28;20032;-57
2023/04/26 06:44:54;;;;;;;2.35;1.33;;;;;;;;;;5034639;28;20045;-57
2023/04/26 06:47:21;;;;;;;2.30;1.38;;;;;;;;;;5016528;28;20391;-57
2023/04/26 06:49:47;;;;;;;3.58;1.50;;;;;;;;;;5016555;28;20025;-57
2023/04/26 06:52:12;;;;;;;5.60;1.67;;;;;;;;;;5034194;28;20452;-57
2023/04/26 06:54:38;;;;;;;3.08;1.67;;;;;;;;;;5016587;28;20030;-57
2023/04/26 06:57:03;;;;;;;2.05;1.35;;;;;;;;;;5034713;28;20027;-57
2023/04/26 06:59:29;;;;;;;4.35;1.27;;;;;;;;;;5034044;28;20585;-57
2023/04/26 07:01:54;;;;;;;1.88;1.30;;;;;;;;;;5016297;28;20029;-57
2023/04/26 07:04:20;;;;;;;2.90;1.40;;;;;;;;;;5034593;28;20041;-57
2023/04/26 07:06:45;;;;;;;2.30;1.17;;;;;;;;;;5016705;28;20038;-61
2023/04/26 07:09:12;;;;;;;2.55;1.00;;;;;;;;;;5033861;28;20041;-57
2023/04/26 07:11:37;;;;;;;2.55;1.50;;;;;;;;;;5060094;23;20111;-58
2023/04/26 07:14:03;;;;;;;3.50;1.50;;;;;;;;;;5048157;22;20050;-57
2023/04/26 07:16:28;;;;;;;3.47;1.30;;;;;;;;;;5054323;23;20360;-58
2023/04/26 07:18:57;;;;;;;2.65;1.08;;;;;;;;;;5049818;22;20058;-61
2023/04/26 07:21:22;;;;;;;2.75;1.17;;;;;;;;;;4994456;28;20431;-61
2023/04/26 07:23:47;;;;;;;2.30;1.38;;;;;;;;;;4993971;28;20121;-61
2023/04/26 07:26:13;;;;;;;2.25;1.30;;;;;;;;;;4994401;28;20033;-61
2023/04/26 07:28:38;;;;;;;4.65;1.35;;;;;;;;;;4994793;28;20449;-62
2023/04/26 07:31:04;;;;;;;2.20;0.93;;;;;;;;;;4994290;28;20031;-62
2023/04/26 07:33:29;;;;;;;2.47;1.00;;;;;;;;;;4976851;28;20061;-62
2023/04/26 07:35:55;;;;;;;2.67;1.20;;;;;;;;;;4993143;28;20030;-61
2023/04/26 07:38:22;;;;;;;1.52;0.73;;;;;;;;;;4977626;28;20056;-62
2023/04/26 07:40:47;;;;;;;3.25;1.27;;;;;;;;;;4976770;28;20366;-62
2023/04/26 07:43:14;;;;;;;1.63;1.10;;;;;;;;;;4994504;28;20037;-61
2023/04/26 07:45:39;;;;;;;5.18;1.30;;;;;;;;;;4992962;28;20033;-61
2023/04/26 07:48:05;;;;;;;4.20;1.50;;;;;;;;;;4994089;28;20031;-62
2023/04/26 07:50:30;;;;;;;1.48;0.95;;;;;;;;;;4976693;28;20477;-62
2023/04/26 07:52:55;;;;;;;2.92;1.10;;;;;;;;;;4994662;28;20026;-61
2023/04/26 07:55:21;;;;;;;1.77;1.13;;;;;;;;;;4992871;28;20432;-61
2023/04/26 07:57:46;;;;;;;1.65;0.90;;;;;;;;;;4994628;28;20018;-61
2023/04/26 08:00:12;;;;;;;3.47;1.30;;;;;;;;;;4994074;28;20599;-62
2023/04/26 08:02:40;;;;;;;2.75;1.20;;;;;;;;;;4994048;28;20105;-62
2023/04/26 08:05:05;;;;;;;4.70;1.20;;;;;;;;;;4994280;28;20128;-61
2023/04/26 08:07:31;;;;;;;2.17;1.08;;;;;;;;;;4994142;28;20030;-61
2023/04/26 08:09:56;;;;;;;2.10;0.90;;;;;;;;;;4994511;28;20033;-61
2023/04/26 08:12:21;;;;;;;2.13;1.27;;;;;;;;;;4976892;28;20027;-62
2023/04/26 08:14:47;;;;;;;1.98;1.10;;;;;;;;;;4995015;28;20097;-62
2023/04/26 08:17:12;;;;;;;2.70;1.02;;;;;;;;;;4994203;28;20061;-63
2023/04/26 08:19:38;;;;;;;1.30;0.90;;;;;;;;;;4976419;28;20125;-61
2023/04/26 08:22:04;;;;;;;2.22;1.00;;;;;;;;;;4993908;28;20088;-61
2023/04/26 08:24:30;;;;;;;2.80;1.15;;;;;;;;;;4994143;28;20084;-61
2023/04/26 08:26:57;;;;;;;2.13;1.00;;;;;;;;;;4992637;28;20038;-61
2023/04/26 08:29:22;;;;;;;2.42;1.13;;;;;;;;;;4993754;28;20374;-61
2023/04/26 08:31:48;;;;;;;1.58;0.88;;;;;;;;;;4993795;28;20086;-61
2023/04/26 08:34:13;;;;;;;3.33;1.38;;;;;;;;;;4993746;28;20037;-61
2023/04/26 08:36:42;;;;;;;2.40;1.33;;;;;;;;;;4978238;28;20030;-62
2023/04/26 08:39:08;;;;;;;1.88;1.05;;;;;;;;;;4997568;28;20097;-62
2023/04/26 08:41:41;;;;;;;3.20;0.93;;;;;;;;;;4996355;28;20030;-61
2023/04/26 08:44:07;;;;;;;2.45;1.10;;;;;;;;;;4996089;28;20113;-62
2023/04/26 08:46:51;;;;;;;2.05;1.00;;;;;;;;;;4997495;28;20112;-62
2023/04/26 08:49:21;;;;;;;1.27;0.90;;;;;;;;;;4997311;28;20037;-62
2023/04/26 08:51:48;;;;;;;3.10;1.42;;;;;;;;;;4996238;28;20023;-62
2023/04/26 08:54:16;;;;;;;4.18;0.90;;;;;;;;;;4997078;28;20048;-62
2023/04/26 08:56:43;;;;;;;2.83;1.20;;;;;;;;;;4997292;28;20042;-62
2023/04/26 08:59:08;;;;;;;1.58;1.05;;;;;;;;;;4997237;28;20058;-62
2023/04/26 09:01:33;;;;;;;1.60;0.73;;;;;;;;;;4996955;28;20499;-62
2023/04/26 09:03:59;;;;;;;1.52;1.15;;;;;;;;;;4995689;28;20153;-61
2023/04/26 09:06:26;;;;;;;1.52;1.00;;;;;;;;;;4997121;28;20469;-62
2023/04/26 09:08:53;;;;;;;1.90;0.80;;;;;;;;;;4996730;28;20381;-62
2023/04/26 09:11:19;;;;;;;2.20;1.05;;;;;;;;;;4995514;28;20023;-62
2023/04/26 09:13:44;;;;;;;1.80;0.82;;;;;;;;;;4995429;28;20393;-62
2023/04/26 09:16:10;;;;;;;0.98;0.70;;;;;;;;;;4996892;28;20094;-62
2023/04/26 09:18:45;;;;;;;1.98;0.90;;;;;;;;;;4999283;28;20085;-62
2023/04/26 09:21:12;;;;;;;3.55;0.95;;;;;;;;;;5015928;28;20032;-62
2023/04/26 09:23:55;;;;;;;2.95;1.00;;;;;;;;;;5016391;28;20029;-62
2023/04/26 09:26:21;;;;;;;2.65;0.98;;;;;;;;;;5016353;28;20456;-62
2023/04/26 09:28:46;;;;;;;4.50;0.85;;;;;;;;;;5014850;28;20037;-62
2023/04/26 09:31:30;;;;;;;2.53;0.80;;;;;;;;;;4998491;28;20014;-62
2023/04/26 09:33:56;;;;;;;2.25;0.77;;;;;;;;;;4998980;28;20034;-61
2023/04/26 09:36:22;;;;;;;1.95;0.85;;;;;;;;;;4998335;28;20072;-61
2023/04/26 09:38:47;;;;;;;1.90;1.00;;;;;;;;;;5014675;28;20080;-62
2023/04/26 09:41:13;;;;;;;1.73;0.88;;;;;;;;;;5016057;28;20034;-62
2023/04/26 09:43:38;;;;;;;1.17;0.70;;;;;;;;;;5016005;28;20030;-62
2023/04/26 09:46:03;;;;;;;1.35;0.90;;;;;;;;;;5015681;28;20030;-62
2023/04/26 09:48:30;;;;;;;3.55;1.00;;;;;;;;;;4997714;28;20036;-62
2023/04/26 09:50:56;;;;;;;1.58;0.60;;;;;;;;;;5015871;28;20038;-62
2023/04/26 09:53:36;;;;;;;2.80;0.98;;;;;;;;;;5015816;28;20117;-62
2023/04/26 09:56:19;;;;;;;5.05;1.55;;;;;;;;;;5015819;28;20026;-62
2023/04/26 09:58:45;;;;;;;2.70;0.93;;;;;;;;;;5015741;28;20041;-62
2023/04/26 10:01:10;;;;;;;1.50;1.00;;;;;;;;;;5015413;28;20029;-62
2023/04/26 10:03:36;;;;;;;1.45;0.80;;;;;;;;;;5015636;28;20026;-62
2023/04/26 10:06:02;;;;;;;1.88;0.90;;;;;;;;;;5014072;28;20030;-62
2023/04/26 10:08:27;;;;;;;2.15;0.93;;;;;;;;;;5015170;28;20092;-62
2023/04/26 10:10:53;;;;;;;2.00;1.10;;;;;;;;;;5015202;28;20040;-62
2023/04/26 10:13:19;;;;;;;1.52;0.98;;;;;;;;;;5015449;28;20428;-62
2023/04/26 10:15:45;;;;;;;1.38;0.80;;;;;;;;;;5013967;28;20052;-62
2023/04/26 10:18:10;;;;;;;2.03;0.80;;;;;;;;;;5015059;28;20026;-62
2023/04/26 10:20:47;;;;;;;1.50;0.57;;;;;;;;;;4997315;28;20095;-62
2023/04/26 10:23:24;;;;;;;2.10;0.90;;;;;;;;;;5015294;28;20438;-62
2023/04/26 10:25:50;;;;;;;2.53;0.77;;;;;;;;;;5014952;28;20036;-62
2023/04/26 10:28:16;;;;;;;1.50;0.65;;;;;;;;;;5014795;28;20041;-62
2023/04/26 10:30:56;;;;;;;1.17;0.80;;;;;;;;;;5015405;28;20476;-62
2023/04/26 10:33:22;;;;;;;1.90;0.98;;;;;;;;;;5015125;28;20034;-62
2023/04/26 10:36:00;;;;;;;1.60;0.65;;;;;;;;;;5014766;28;20531;-62
2023/04/26 10:38:25;;;;;;;1.17;0.70;;;;;;;;;;5014742;28;20037;-62
2023/04/26 10:40:51;;;;;;;1.77;0.60;;;;;;;;;;4997117;28;20025;-62
2023/04/26 10:43:18;;;;;;;1.60;0.90;;;;;;;;;;5014635;28;20033;-62
2023/04/26 10:45:46;;;;;;;2.92;0.90;;;;;;;;;;5014617;28;20235;-63
2023/04/26 10:48:19;;;;;;;2.20;0.63;;;;;;;;;;5014769;28;20033;-64
2023/04/26 10:51:00;;;;;;;1.60;0.70;;;;;;;;;;5014788;28;20083;-64
2023/04/26 10:53:32;;;;;;;2.47;0.60;;;;;;;;;;5013269;28;20456;-64
2023/04/26 10:55:57;;;;;;;0.70;0.50;;;;;;;;;;5014681;28;20368;-64
2023/04/26 10:58:26;;;;;;;1.10;0.65;;;;;;;;;;5013684;28;20041;-64
2023/04/26 11:01:12;;;;;;;1.38;0.80;;;;;;;;;;5014614;28;20032;-64
2023/04/26 11:03:39;;;;;;;1.50;0.50;;;;;;;;;;5000430;28;20393;-64
2023/04/26 11:06:06;;;;;;;1.05;0.60;;;;;;;;;;4997339;28;20048;-64
2023/04/26 11:08:33;;;;;;;2.72;0.60;;;;;;;;;;5014448;28;20116;-64
2023/04/26 11:11:05;;;;;;;1.38;0.80;;;;;;;;;;4996582;28;20025;-64
2023/04/26 11:13:40;;;;;;;1.85;0.80;;;;;;;;;;5014729;28;20029;-64
2023/04/26 11:16:10;;;;;;;1.10;0.80;;;;;;;;;;5014406;28;20037;-64
2023/04/26 11:18:36;;;;;;;1.27;0.80;;;;;;;;;;5014221;28;20471;-64
2023/04/26 11:21:02;;;;;;;2.08;0.80;;;;;;;;;;5014411;28;20041;-64
2023/04/26 11:23:28;;;;;;;2.25;0.98;;;;;;;;;;5014006;28;20033;-64
2023/04/26 11:26:03;;;;;;;0.88;0.60;;;;;;;;;;5014274;28;20038;-64
2023/04/26 11:28:30;;;;;;;2.53;0.70;;;;;;;;;;5014465;28;20113;-64
2023/04/26 11:30:56;;;;;;;1.15;0.77;;;;;;;;;;5013959;28;20193;-64
2023/04/26 11:33:22;;;;;;;1.30;0.88;;;;;;;;;;5014263;28;20102;-64
2023/04/26 11:35:50;;;;;;;1.67;0.80;;;;;;;;;;5014186;28;20053;-64
2023/04/26 11:38:16;;;;;;;2.67;0.75;;;;;;;;;;5013896;28;20041;-64
2023/04/26 11:40:42;;;;;;;1.65;0.60;;;;;;;;;;5014116;28;20026;-64
2023/04/26 11:43:07;;;;;;;0.95;0.70;;;;;;;;;;4996228;28;20057;-64
2023/04/26 11:45:34;;;;;;;1.45;0.77;;;;;;;;;;5013796;28;20156;-64
2023/04/26 11:48:01;;;;;;;0.88;0.70;;;;;;;;;;5013737;28;20101;-64
2023/04/26 11:50:26;;;;;;;1.80;0.80;;;;;;;;;;5014036;28;20025;-64
2023/04/26 11:52:55;;;;;;;0.70;0.60;;;;;;;;;;5013761;28;20096;-64
2023/04/26 11:55:26;;;;;;;0.85;0.43;;;;;;;;;;5013972;28;20428;-64
2023/04/26 11:57:51;;;;;;;0.88;0.68;;;;;;;;;;4996118;28;20469;-64
2023/04/26 12:00:17;;;;;;;1.85;0.60;;;;;;;;;;5013646;28;20037;-64
2023/04/26 12:02:46;;;;;;;5.25;0.70;;;;;;;;;;5013655;28;20034;-64
2023/04/26 12:05:21;;;;;;;1.33;0.60;;;;;;;;;;5014177;28;20038;-64
2023/04/26 12:07:56;;;;;;;1.85;0.70;;;;;;;;;;4996309;28;20077;-64
2023/04/26 12:10:25;;;;;;;1.33;0.77;;;;;;;;;;5015222;28;20137;-64
2023/04/26 12:12:50;;;;;;;1.77;0.80;;;;;;;;;;5017697;28;20040;-64
2023/04/26 12:15:17;;;;;;;2.17;1.00;;;;;;;;;;5016220;28;20026;-64
2023/04/26 12:17:52;;;;;;;1.60;0.73;;;;;;;;;;5017344;28;20030;-64
2023/04/26 12:20:17;;;;;;;2.08;0.80;;;;;;;;;;5017278;28;20074;-64
2023/04/26 12:22:56;;;;;;;1.45;0.77;;;;;;;;;;4999651;28;20060;-64
2023/04/26 12:25:21;;;;;;;2.42;0.95;;;;;;;;;;5017480;28;20065;-64
2023/04/26 12:27:46;;;;;;;0.85;0.75;;;;;;;;;;5016214;28;20073;-64
2023/04/26 12:30:15;;;;;;;1.13;0.70;;;;;;;;;;5017372;28;20030;-64
2023/04/26 12:32:40;;;;;;;2.50;0.80;;;;;;;;;;4999446;28;20084;-64
2023/04/26 12:35:06;;;;;;;1.80;0.80;;;;;;;;;;5017018;28;20042;-64
2023/04/26 12:37:31;;;;;;;1.67;0.60;;;;;;;;;;5017270;28;20038;-64
2023/04/26 12:39:57;;;;;;;3.47;0.80;;;;;;;;;;5017216;28;20018;-64
2023/04/26 12:42:22;;;;;;;3.05;0.77;;;;;;;;;;5017125;28;20116;-64
2023/04/26 12:44:48;;;;;;;0.82;0.60;;;;;;;;;;5017112;28;20112;-64
2023/04/26 12:47:13;;;;;;;1.00;0.60;;;;;;;;;;5016834;28;20362;-64
2023/04/26 12:49:38;;;;;;;2.53;0.70;;;;;;;;;;4999135;28;20064;-64
2023/04/26 12:52:03;;;;;;;1.25;0.68;;;;;;;;;;5017029;28;20057;-64
2023/04/26 12:54:29;;;;;;;1.50;0.90;;;;;;;;;;5016657;28;20026;-64
2023/04/26 12:56:54;;;;;;;1.67;0.90;;;;;;;;;;5016901;28;20022;-64
2023/04/26 12:59:19;;;;;;;1.25;0.80;;;;;;;;;;5016600;28;20444;-64
2023/04/26 13:01:45;;;;;;;0.75;0.70;;;;;;;;;;5016524;28;20468;-64
2023/04/26 13:04:10;;;;;;;1.48;1.05;;;;;;;;;;5017028;28;20028;-64
2023/04/26 13:06:36;;;;;;;2.15;0.80;;;;;;;;;;5016472;28;20366;-64
2023/04/26 13:09:01;;;;;;;1.48;1.00;;;;;;;;;;5016652;28;20125;-64
2023/04/26 13:11:26;;;;;;;1.33;0.77;;;;;;;;;;5016675;28;20112;-64
2023/04/26 13:13:52;;;;;;;1.67;0.68;;;;;;;;;;4998779;28;20120;-64
2023/04/26 13:16:17;;;;;;;3.05;0.70;;;;;;;;;;5016249;28;20041;-64
2023/04/26 13:18:42;;;;;;;1.60;0.88;;;;;;;;;;5015475;28;20041;-64
2023/04/26 13:21:08;;;;;;;1.02;0.95;;;;;;;;;;5014846;28;20030;-64
2023/04/26 13:23:33;;;;;;;1.88;0.95;;;;;;;;;;5013274;28;20034;-60
2023/04/26 13:25:58;;;;;;;2.05;0.88;;;;;;;;;;4998193;28;20108;-58
2023/04/26 13:28:24;;;;;;;0.80;0.65;;;;;;;;;;5015525;28;20421;-58
2023/04/26 13:30:49;;;;;;;0.93;0.52;;;;;;;;;;5009444;28;20026;-58
2023/04/26 13:33:15;;;;;;;1.80;0.60;;;;;;;;;;4997918;28;20034;-58
2023/04/26 13:35:40;;;;;;;1.27;0.77;;;;;;;;;;5015464;28;20084;-58
2023/04/26 13:38:05;;;;;;;2.15;0.75;;;;;;;;;;5015128;28;20334;-58
2023/04/26 13:40:31;;;;;;;1.85;0.90;;;;;;;;;;5003935;28;20026;-58
2023/04/26 13:43:00;;;;;;;0.95;0.80;;;;;;;;;;5015234;28;20053;-58
2023/04/26 13:45:26;;;;;;;2.28;0.70;;;;;;;;;;5008848;28;20472;-58
2023/04/26 13:47:51;;;;;;;0.93;0.60;;;;;;;;;;5006327;28;20101;-58
2023/04/26 13:50:17;;;;;;;1.58;0.80;;;;;;;;;;5003333;28;20027;-58
2023/04/26 13:52:42;;;;;;;2.38;1.00;;;;;;;;;;4997371;28;20033;-58
2023/04/26 13:55:07;;;;;;;2.35;0.70;;;;;;;;;;4995880;28;20114;-58
2023/04/26 13:57:33;;;;;;;1.35;0.90;;;;;;;;;;4996277;28;20432;-58
2023/04/26 13:59:58;;;;;;;1.42;0.93;;;;;;;;;;4996373;28;20102;-58
2023/04/26 14:02:23;;;;;;;2.85;0.88;;;;;;;;;;4996365;28;20034;-58
2023/04/26 14:04:49;;;;;;;2.35;0.90;;;;;;;;;;4995286;28;20031;-58
2023/04/26 14:07:14;;;;;;;2.05;0.80;;;;;;;;;;4978325;28;20034;-58
2023/04/26 14:09:40;;;;;;;2.42;1.00;;;;;;;;;;4995545;28;20042;-58
2023/04/26 14:12:05;;;;;;;1.30;0.70;;;;;;;;;;4995703;28;20030;-58
2023/04/26 14:14:31;;;;;;;2.05;0.75;;;;;;;;;;4993384;28;20381;-58
2023/04/26 14:16:56;;;;;;;1.45;0.57;;;;;;;;;;4993462;28;20026;-58
2023/04/26 14:19:21;;;;;;;1.25;0.77;;;;;;;;;;4993169;28;20046;-58
2023/04/26 14:21:47;;;;;;;2.67;1.00;;;;;;;;;;4975987;28;20030;-58
2023/04/26 14:24:12;;;;;;;1.80;0.90;;;;;;;;;;4993288;28;20030;-58
2023/04/26 14:26:37;;;;;;;0.95;0.60;;;;;;;;;;4993707;28;20439;-58
2023/04/26 14:29:06;;;;;;;3.10;1.50;;;;;;;;;;4992987;28;20046;-58
2023/04/26 14:31:31;;;;;;;5.93;0.98;;;;;;;;;;4993953;28;20022;-58
2023/04/26 14:33:57;;;;;;;1.17;0.95;;;;;;;;;;4993761;28;20471;-58
2023/04/26 14:36:22;;;;;;;2.13;0.73;;;;;;;;;;4995063;28;20029;-58
2023/04/26 14:38:47;;;;;;;1.83;0.88;;;;;;;;;;4995088;28;20053;-58
2023/04/26 14:41:14;;;;;;;2.35;0.80;;;;;;;;;;4977675;28;20022;-58